Time;durP1;ratioP1;P1;durP2;ratioP2;P2;SDS_P1;SDS_P2;PMS_P1;PMS_P2;Temp;Humidity;BMP_temperature;BMP_pressure;BME280_temperature;BME280_humidity;BME280_pressure;Samples;Min_cycle;Max_cycle;Signal;HPM_P1;HPM_P2
2022/12/05 00:01:49;;;;;;;23.40;15.70;;;4.10;99.90;;;;;;10427495;28;20252;-74
2022/12/05 00:06:50;;;;;;;23.27;15.73;;;4.10;99.90;;;;;;10430993;28;20220;-74
2022/12/05 00:11:50;;;;;;;22.53;16.17;;;4.10;99.90;;;;;;10436115;28;20220;-74
2022/12/05 00:16:51;;;;;;;22.70;16.43;;;4.10;99.90;;;;;;10427011;28;20263;-71
2022/12/05 00:21:51;;;;;;;25.67;15.87;;;4.10;99.90;;;;;;10424782;28;20754;-73
2022/12/05 00:26:52;;;;;;;25.47;15.63;;;4.10;99.90;;;;;;10431056;28;20248;-72
2022/12/05 00:31:53;;;;;;;25.97;15.70;;;4.10;99.90;;;;;;10424855;28;20247;-73
2022/12/05 00:36:54;;;;;;;22.70;15.73;;;4.10;99.90;;;;;;10431365;28;20232;-73
2022/12/05 00:41:55;;;;;;;24.97;16.90;;;4.10;99.90;;;;;;10424287;28;20899;-73
2022/12/05 00:46:55;;;;;;;23.23;16.50;;;4.10;99.90;;;;;;10425664;28;20641;-73
2022/12/05 00:51:56;;;;;;;23.50;16.20;;;4.10;99.90;;;;;;10431756;28;20216;-73
2022/12/05 00:56:56;;;;;;;24.87;15.83;;;4.20;99.90;;;;;;10424836;28;20232;-73
2022/12/05 01:01:57;;;;;;;23.67;16.00;;;4.20;99.90;;;;;;10423814;28;20706;-73
2022/12/05 01:06:57;;;;;;;24.37;16.47;;;4.30;99.90;;;;;;10430223;28;20222;-73
2022/12/05 01:11:58;;;;;;;26.03;16.70;;;4.20;99.90;;;;;;10431508;28;20215;-73
2022/12/05 01:16:59;;;;;;;27.07;16.67;;;4.20;99.90;;;;;;10422869;28;20743;-73
2022/12/05 01:21:59;;;;;;;25.07;16.37;;;4.20;99.90;;;;;;10421768;28;20335;-73
2022/12/05 01:27:00;;;;;;;24.73;16.43;;;4.20;99.90;;;;;;10432296;28;20255;-73
2022/12/05 01:32:00;;;;;;;23.30;15.17;;;4.20;99.90;;;;;;10436455;28;20862;-73
2022/12/05 01:37:01;;;;;;;24.33;16.37;;;4.20;99.90;;;;;;10429590;28;20237;-73
2022/12/05 01:42:04;;;;;;;23.30;16.03;;;4.20;99.90;;;;;;10433261;28;20314;-75
2022/12/05 01:47:05;;;;;;;23.87;15.20;;;4.20;99.90;;;;;;10432826;28;20714;-75
2022/12/05 01:52:19;;;;;;;26.23;15.07;;;4.30;99.90;;;;;;10439349;28;20226;-75
2022/12/05 01:57:21;;;;;;;26.20;16.53;;;4.30;99.90;;;;;;10432651;28;20256;-75
2022/12/05 02:02:22;;;;;;;22.83;14.93;;;4.30;99.90;;;;;;10437625;28;20259;-72
2022/12/05 02:07:22;;;;;;;23.57;16.00;;;4.40;99.90;;;;;;10430841;28;20312;-72
2022/12/05 02:12:23;;;;;;;24.00;16.10;;;4.40;99.90;;;;;;10434890;28;20299;-73
2022/12/05 02:17:50;;;;;;;24.03;15.87;;;4.40;99.90;;;;;;10439953;28;20275;-70
2022/12/05 02:22:56;;;;;;;25.47;16.30;;;4.40;99.90;;;;;;10430267;28;20225;-73
2022/12/05 02:28:30;;;;;;;24.00;16.10;;;4.40;99.90;;;;;;10428048;28;20590;-72
2022/12/05 02:33:37;;;;;;;25.10;16.67;;;4.40;99.90;;;;;;10432947;28;20850;-73
2022/12/05 02:39:05;;;;;;;26.00;16.83;;;4.30;99.90;;;;;;10427424;28;20221;-70
2022/12/05 02:44:15;;;;;;;25.03;16.23;;;4.20;99.90;;;;;;10437390;28;20292;-70
2022/12/05 02:49:20;;;;;;;26.83;17.17;;;4.30;99.90;;;;;;10428230;28;20224;-73
2022/12/05 02:54:30;;;;;;;24.80;16.90;;;4.20;99.90;;;;;;10434906;28;20228;-72
2022/12/05 02:59:30;;;;;;;23.43;15.40;;;4.20;99.90;;;;;;10439223;28;20219;-72
2022/12/05 03:04:32;;;;;;;22.27;15.57;;;4.20;99.90;;;;;;10438237;28;20632;-71
2022/12/05 03:09:45;;;;;;;22.77;15.40;;;4.20;99.90;;;;;;10431614;28;20225;-73
2022/12/05 03:15:04;;;;;;;24.70;15.70;;;4.20;99.90;;;;;;10432757;28;20704;-73
2022/12/05 03:20:19;;;;;;;23.50;15.77;;;4.20;99.90;;;;;;10467519;28;20220;-73
2022/12/05 03:25:24;;;;;;;23.60;15.73;;;4.30;99.90;;;;;;10429222;28;20187;-73
2022/12/05 03:30:25;;;;;;;26.47;17.17;;;4.30;99.90;;;;;;10441944;28;20303;-72
2022/12/05 03:35:29;;;;;;;25.47;15.63;;;4.30;99.90;;;;;;10436979;28;20224;-73
2022/12/05 03:41:06;;;;;;;28.00;16.77;;;4.30;99.90;;;;;;10432837;28;20761;-73
2022/12/05 03:46:23;;;;;;;23.03;15.17;;;4.30;99.90;;;;;;10437368;28;20223;-74
2022/12/05 03:51:29;;;;;;;23.80;16.60;;;4.40;99.90;;;;;;10429134;28;20311;-72
2022/12/05 03:56:51;;;;;;;25.73;16.23;;;4.40;99.90;;;;;;10424602;28;20295;-70
2022/12/05 04:01:54;;;;;;;27.43;16.20;;;4.40;99.90;;;;;;10428068;28;20307;-70
2022/12/05 04:06:57;;;;;;;25.63;16.87;;;4.40;99.90;;;;;;10431570;28;20224;-70
2022/12/05 04:12:05;;;;;;;29.30;18.40;;;4.40;99.90;;;;;;10424482;28;20815;-70
2022/12/05 04:17:09;;;;;;;24.23;16.53;;;4.40;99.90;;;;;;10436108;28;20228;-70
2022/12/05 04:22:10;;;;;;;28.27;16.67;;;4.40;99.90;;;;;;10424511;28;20220;-70
2022/12/05 04:27:21;;;;;;;33.00;18.47;;;4.40;99.90;;;;;;10432376;28;20816;-71
2022/12/05 04:32:26;;;;;;;31.63;17.77;;;4.40;99.90;;;;;;10423159;28;20719;-71
2022/12/05 04:37:34;;;;;;;35.30;18.43;;;4.40;99.90;;;;;;10432860;28;20224;-73
2022/12/05 04:42:39;;;;;;;30.53;19.07;;;4.40;99.90;;;;;;10423028;28;20228;-72
2022/12/05 04:47:45;;;;;;;32.43;18.80;;;4.40;99.90;;;;;;10428305;28;20220;-72
2022/12/05 04:52:51;;;;;;;38.37;19.10;;;4.40;99.90;;;;;;10429261;28;20223;-74
2022/12/05 04:58:10;;;;;;;40.53;20.00;;;4.40;99.90;;;;;;10433257;28;20624;-75
2022/12/05 05:03:16;;;;;;;34.40;18.93;;;4.40;99.90;;;;;;10422768;28;20355;-74
2022/12/05 05:08:28;;;;;;;35.37;19.10;;;4.30;99.90;;;;;;10437141;28;20224;-72
2022/12/05 05:13:29;;;;;;;36.50;19.10;;;4.30;99.90;;;;;;10426462;28;20585;-74
2022/12/05 05:18:30;;;;;;;37.27;19.87;;;4.30;99.90;;;;;;10433420;28;20215;-74
2022/12/05 05:23:34;;;;;;;33.33;18.23;;;4.30;99.90;;;;;;10433978;28;20234;-75
2022/12/05 05:28:35;;;;;;;44.67;20.80;;;4.30;99.90;;;;;;10428205;28;20219;-76
2022/12/05 05:33:36;;;;;;;37.13;20.03;;;4.30;99.90;;;;;;10434879;28;20262;-74
2022/12/05 05:38:42;;;;;;;42.57;20.70;;;4.30;99.90;;;;;;10423952;28;20292;-73
2022/12/05 05:43:44;;;;;;;41.90;19.90;;;4.30;99.90;;;;;;10426244;28;20294;-74
2022/12/05 05:48:45;;;;;;;40.97;18.33;;;4.30;99.90;;;;;;10428712;28;20281;-75
2022/12/05 05:53:46;;;;;;;42.07;21.23;;;4.40;99.90;;;;;;10418885;28;20220;-74
2022/12/05 05:58:48;;;;;;;45.53;21.47;;;4.40;99.90;;;;;;10429783;28;20212;-76
2022/12/05 06:03:51;;;;;;;43.10;20.50;;;4.40;99.90;;;;;;10423936;28;20222;-77
2022/12/05 06:08:53;;;;;;;40.87;20.33;;;4.40;99.90;;;;;;10425470;28;20232;-77
2022/12/05 06:13:55;;;;;;;46.03;19.20;;;4.50;99.90;;;;;;10428577;28;20258;-73
2022/12/05 06:18:57;;;;;;;41.80;18.70;;;4.50;99.90;;;;;;10426996;28;20216;-75
2022/12/05 06:23:57;;;;;;;48.07;21.07;;;4.50;99.90;;;;;;10436929;28;20220;-74
2022/12/05 06:28:58;;;;;;;46.10;21.47;;;4.50;99.90;;;;;;10439964;28;20222;-74
2022/12/05 06:34:01;;;;;;;46.47;20.23;;;4.50;99.90;;;;;;10439470;28;20224;-68
2022/12/05 06:39:02;;;;;;;44.17;20.97;;;4.50;99.90;;;;;;10437295;28;20636;-68
2022/12/05 06:44:03;;;;;;;45.90;21.23;;;4.50;99.90;;;;;;10431924;28;20216;-69
2022/12/05 06:49:03;;;;;;;45.83;21.17;;;4.50;99.90;;;;;;10437003;28;20228;-69
2022/12/05 06:54:04;;;;;;;44.60;20.47;;;4.40;99.90;;;;;;10425242;28;20254;-69
2022/12/05 06:59:05;;;;;;;50.30;22.47;;;4.40;99.90;;;;;;10452980;28;20637;-74
2022/12/05 07:04:09;;;;;;;47.23;22.27;;;4.40;99.90;;;;;;10428596;28;20236;-74
2022/12/05 07:09:10;;;;;;;54.10;23.73;;;4.40;99.90;;;;;;10440218;28;20255;-75
2022/12/05 07:14:11;;;;;;;50.43;21.93;;;4.50;99.90;;;;;;10433670;28;20727;-74
2022/12/05 07:19:12;;;;;;;53.13;21.77;;;4.50;99.90;;;;;;10427240;28;20235;-74
2022/12/05 07:24:12;;;;;;;41.93;21.03;;;4.50;99.90;;;;;;10435833;28;20220;-74
2022/12/05 07:29:13;;;;;;;52.30;22.27;;;4.50;99.90;;;;;;10427817;28;20631;-74
2022/12/05 07:34:13;;;;;;;53.03;22.37;;;4.60;99.90;;;;;;10443181;28;20636;-75
2022/12/05 07:39:15;;;;;;;46.83;21.63;;;4.60;99.90;;;;;;10433852;28;20274;-74
2022/12/05 07:44:15;;;;;;;47.03;22.40;;;4.70;99.90;;;;;;10427029;28;20240;-75
2022/12/05 07:49:16;;;;;;;46.00;21.27;;;4.70;99.90;;;;;;10431739;28;20717;-75
2022/12/05 07:54:17;;;;;;;43.77;21.30;;;4.70;99.90;;;;;;10426469;28;20252;-74
2022/12/05 07:59:17;;;;;;;42.47;20.60;;;4.70;99.90;;;;;;10425579;28;20256;-74
2022/12/05 08:04:18;;;;;;;47.23;21.23;;;4.80;99.90;;;;;;10433197;28;20220;-74
2022/12/05 08:09:18;;;;;;;39.73;20.33;;;4.80;99.90;;;;;;10427319;28;20742;-74
2022/12/05 08:14:20;;;;;;;44.97;22.07;;;4.90;99.90;;;;;;10432908;28;20233;-75
2022/12/05 08:19:21;;;;;;;42.20;21.30;;;5.00;99.90;;;;;;10432679;28;20220;-73
2022/12/05 08:24:23;;;;;;;42.83;20.47;;;4.90;99.90;;;;;;10426869;28;20220;-72
2022/12/05 08:29:24;;;;;;;42.67;20.83;;;5.00;99.90;;;;;;10431245;28;20585;-70
2022/12/05 08:34:24;;;;;;;44.77;21.97;;;5.00;99.90;;;;;;10435085;28;20228;-72
2022/12/05 08:39:26;;;;;;;41.43;20.87;;;5.00;99.90;;;;;;10433285;28;20213;-72
2022/12/05 08:44:26;;;;;;;40.97;21.17;;;5.10;99.90;;;;;;10427101;28;20326;-72
2022/12/05 08:49:27;;;;;;;41.93;20.93;;;5.10;99.90;;;;;;10423417;28;20359;-73
2022/12/05 08:54:28;;;;;;;44.17;21.23;;;5.10;99.90;;;;;;10445281;28;20716;-72
2022/12/05 08:59:28;;;;;;;41.57;21.50;;;5.10;99.90;;;;;;10440587;28;20327;-72
2022/12/05 09:04:29;;;;;;;46.40;21.20;;;5.10;99.90;;;;;;10430983;28;20314;-73
2022/12/05 09:09:31;;;;;;;42.23;21.00;;;5.00;99.90;;;;;;10432824;28;20228;-72
2022/12/05 09:14:32;;;;;;;46.37;22.50;;;5.00;99.90;;;;;;10432597;28;20258;-73
2022/12/05 09:19:32;;;;;;;46.50;23.67;;;4.90;99.90;;;;;;10440283;28;20674;-77
2022/12/05 09:24:33;;;;;;;45.73;23.33;;;4.90;99.90;;;;;;10435795;28;20223;-73
2022/12/05 09:29:34;;;;;;;48.07;23.50;;;4.90;99.90;;;;;;10434943;28;20327;-73
2022/12/05 09:34:36;;;;;;;49.53;23.60;;;5.00;99.90;;;;;;10437739;28;20232;-73
2022/12/05 09:39:36;;;;;;;48.93;24.43;;;5.10;99.90;;;;;;10446452;28;20353;-73
2022/12/05 09:44:48;;;;;;;49.23;24.50;;;5.30;99.90;;;;;;10426999;28;20845;-73
2022/12/05 09:50:13;;;;;;;42.40;23.50;;;5.40;99.90;;;;;;10449972;28;20224;-73
2022/12/05 09:55:18;;;;;;;41.87;21.00;;;5.40;99.90;;;;;;10433837;28;20323;-73
2022/12/05 10:00:19;;;;;;;40.27;21.70;;;5.40;99.90;;;;;;10426649;28;20189;-73
2022/12/05 10:05:55;;;;;;;44.37;21.40;;;5.50;99.90;;;;;;10438094;28;20596;-72
2022/12/05 10:11:03;;;;;;;37.47;21.43;;;5.50;99.90;;;;;;10437438;28;20238;-73
2022/12/05 10:16:11;;;;;;;38.50;21.80;;;5.60;99.90;;;;;;10439262;28;20335;-72
2022/12/05 10:21:18;;;;;;;33.50;19.97;;;5.70;99.90;;;;;;10439396;28;20609;-72
2022/12/05 10:26:21;;;;;;;37.60;20.07;;;5.70;99.90;;;;;;10437109;28;20320;-73
2022/12/05 10:31:27;;;;;;;35.90;20.20;;;5.70;99.90;;;;;;10435613;28;20220;-72
2022/12/05 10:36:27;;;;;;;33.90;20.13;;;5.70;99.90;;;;;;10439730;28;20636;-73
2022/12/05 10:41:28;;;;;;;36.93;19.63;;;5.70;99.90;;;;;;10435806;28;20227;-72
2022/12/05 10:46:30;;;;;;;39.23;21.23;;;5.60;99.90;;;;;;10423396;28;20307;-73
2022/12/05 10:51:30;;;;;;;35.67;20.03;;;5.50;99.90;;;;;;10433823;28;20228;-72
2022/12/05 10:56:48;;;;;;;37.53;20.23;;;5.50;99.90;;;;;;10435898;28;20220;-72
2022/12/05 11:01:57;;;;;;;35.97;19.57;;;5.50;99.90;;;;;;10464343;28;20777;-73
2022/12/05 11:07:00;;;;;;;42.07;21.13;;;5.50;99.90;;;;;;10441194;28;20691;-74
2022/12/05 11:12:12;;;;;;;40.00;21.10;;;5.50;99.90;;;;;;10442673;28;20234;-74
2022/12/05 11:17:28;;;;;;;38.37;21.70;;;5.40;99.90;;;;;;10433218;28;20261;-74
2022/12/05 11:22:35;;;;;;;36.53;20.63;;;5.50;99.90;;;;;;10432396;28;20223;-74
2022/12/05 11:27:36;;;;;;;34.13;20.80;;;5.60;99.90;;;;;;10438255;28;20226;-75
2022/12/05 11:32:36;;;;;;;32.03;20.60;;;5.60;99.90;;;;;;10426851;28;20303;-74
2022/12/05 11:37:40;;;;;;;34.07;20.00;;;5.60;99.90;;;;;;10434816;28;20235;-75
2022/12/05 11:43:18;;;;;;;36.67;20.93;;;5.70;99.90;;;;;;10429126;28;20703;-75
2022/12/05 11:48:47;;;;;;;36.37;20.67;;;5.70;99.90;;;;;;10422734;28;20774;-75
2022/12/05 11:54:14;;;;;;;34.07;18.23;;;5.90;99.90;;;;;;10429853;28;20231;-75
2022/12/05 11:59:45;;;;;;;33.97;18.43;;;5.90;99.90;;;;;;10428659;28;20695;-74
2022/12/05 12:05:11;;;;;;;33.83;18.13;;;5.90;99.90;;;;;;10415363;28;20243;-74
2022/12/05 12:10:42;;;;;;;30.93;17.87;;;6.00;99.90;;;;;;10427318;28;20920;-75
2022/12/05 12:16:12;;;;;;;29.27;17.43;;;6.10;99.90;;;;;;10433635;28;20250;-74
2022/12/05 12:21:37;;;;;;;31.57;17.80;;;6.10;99.90;;;;;;10443265;28;20232;-73
2022/12/05 12:26:52;;;;;;;28.20;17.33;;;6.20;99.90;;;;;;10441242;28;20270;-74
2022/12/05 12:32:13;;;;;;;32.27;17.90;;;6.10;99.90;;;;;;10442728;28;20232;-72
2022/12/05 12:37:36;;;;;;;27.20;17.27;;;6.10;99.90;;;;;;10443408;28;20239;-74
2022/12/05 12:42:55;;;;;;;30.57;17.63;;;6.10;99.90;;;;;;10436646;28;20239;-74
2022/12/05 12:47:58;;;;;;;28.37;17.90;;;6.10;99.90;;;;;;10443915;28;20679;-74
2022/12/05 12:53:18;;;;;;;29.17;18.20;;;6.10;99.90;;;;;;10430330;28;20243;-74
2022/12/05 12:58:30;;;;;;;28.87;17.80;;;6.00;99.90;;;;;;10446525;28;20231;-74
2022/12/05 13:03:46;;;;;;;32.73;19.43;;;6.00;99.90;;;;;;10446767;28;20223;-74
2022/12/05 13:08:53;;;;;;;33.33;18.43;;;5.90;99.90;;;;;;10435324;28;20233;-72
2022/12/05 13:13:57;;;;;;;35.10;18.77;;;5.90;99.90;;;;;;10425511;28;20213;-73
2022/12/05 13:18:58;;;;;;;32.23;18.87;;;5.90;99.90;;;;;;10422685;28;20303;-71
2022/12/05 13:24:02;;;;;;;29.57;18.30;;;5.80;99.90;;;;;;10442978;28;20279;-71
2022/12/05 13:29:03;;;;;;;36.20;20.40;;;5.80;99.90;;;;;;10421292;28;20212;-74
2022/12/05 13:34:04;;;;;;;34.10;20.53;;;5.90;99.90;;;;;;10428961;28;20224;-73
2022/12/05 13:44:44;;;;;;;31.40;19.97;;;5.90;99.90;;;;;;10442239;28;20212;-72
2022/12/05 13:49:53;;;;;;;31.83;20.90;;;5.90;99.90;;;;;;10441654;28;20216;-72
2022/12/05 13:55:11;;;;;;;34.90;21.47;;;5.90;99.90;;;;;;10429896;28;20221;-74
2022/12/05 14:00:12;;;;;;;28.40;18.83;;;5.90;99.90;;;;;;10427640;28;20223;-74
2022/12/05 14:05:12;;;;;;;27.67;18.27;;;5.90;99.90;;;;;;10441727;28;20186;-73
2022/12/05 14:10:27;;;;;;;27.80;18.70;;;5.90;99.90;;;;;;10465619;28;20216;-74
2022/12/05 14:15:41;;;;;;;27.50;18.50;;;6.00;99.90;;;;;;10443473;28;20228;-74
2022/12/05 14:20:45;;;;;;;22.27;16.53;;;6.00;99.90;;;;;;10436546;28;20687;-74
2022/12/05 14:26:13;;;;;;;24.23;17.73;;;6.00;99.90;;;;;;10438966;28;20227;-74
2022/12/05 14:31:39;;;;;;;24.70;17.43;;;6.00;99.90;;;;;;10443070;28;20215;-74
2022/12/05 14:36:52;;;;;;;23.97;15.67;;;6.00;99.90;;;;;;10441053;28;20315;-74
2022/12/05 14:42:01;;;;;;;27.53;18.70;;;6.00;99.90;;;;;;10451859;28;20232;-74
2022/12/05 14:47:05;;;;;;;28.33;19.73;;;5.90;99.90;;;;;;10442267;28;20726;-74
2022/12/05 14:52:10;;;;;;;29.90;19.43;;;5.90;99.90;;;;;;10434208;28;20223;-73
2022/12/05 14:57:18;;;;;;;26.93;18.80;;;6.00;99.90;;;;;;10445744;28;20248;-73
2022/12/05 15:02:31;;;;;;;32.97;23.40;;;5.90;99.90;;;;;;10440291;28;20243;-74
2022/12/05 15:07:36;;;;;;;27.77;18.83;;;6.00;99.90;;;;;;10439871;28;20761;-73
2022/12/05 15:12:42;;;;;;;25.77;18.43;;;5.90;99.90;;;;;;10433539;28;20243;-74
2022/12/05 15:17:56;;;;;;;25.13;17.87;;;5.90;99.90;;;;;;10434060;28;20307;-73
2022/12/05 15:22:59;;;;;;;24.87;17.13;;;5.90;99.90;;;;;;10439133;28;20225;-73
2022/12/05 15:28:04;;;;;;;24.83;17.53;;;5.90;99.90;;;;;;10433172;28;20315;-73
2022/12/05 15:33:12;;;;;;;26.57;17.57;;;5.90;99.90;;;;;;10429626;28;20751;-73
2022/12/05 15:38:28;;;;;;;24.63;16.87;;;5.90;99.90;;;;;;10441712;28;20753;-72
2022/12/05 15:43:34;;;;;;;25.07;16.47;;;5.90;99.90;;;;;;10444058;28;20222;-74
2022/12/05 15:48:35;;;;;;;24.50;17.17;;;5.90;99.90;;;;;;10429332;28;20223;-72
2022/12/05 15:53:40;;;;;;;25.67;17.37;;;5.90;99.90;;;;;;10441397;28;20223;-74
2022/12/05 15:59:16;;;;;;;25.90;16.37;;;5.90;99.90;;;;;;10430130;28;20228;-74
2022/12/05 16:04:35;;;;;;;21.77;15.97;;;5.90;99.90;;;;;;10412980;28;20219;-73
2022/12/05 16:09:40;;;;;;;20.47;15.47;;;5.90;99.90;;;;;;10425279;28;20255;-74
2022/12/05 16:14:41;;;;;;;21.07;15.20;;;5.90;99.90;;;;;;10425187;28;20720;-74
2022/12/05 16:19:42;;;;;;;19.37;14.00;;;5.90;99.90;;;;;;10440772;28;20223;-74
2022/12/05 16:24:52;;;;;;;17.70;13.23;;;6.00;99.90;;;;;;10432306;28;20235;-74
2022/12/05 16:30:11;;;;;;;19.50;13.50;;;5.90;99.90;;;;;;10440589;28;20258;-74
2022/12/05 16:35:39;;;;;;;18.10;12.07;;;6.00;99.90;;;;;;10430362;28;20357;-71
2022/12/05 16:41:01;;;;;;;15.10;11.30;;;6.00;99.90;;;;;;10437080;28;20267;-71
2022/12/05 16:46:11;;;;;;;14.73;10.60;;;5.90;99.90;;;;;;10422561;28;20217;-71
2022/12/05 16:51:12;;;;;;;11.60;9.27;;;5.90;99.90;;;;;;10430183;28;20224;-71
2022/12/05 16:56:16;;;;;;;11.37;7.87;;;5.90;99.90;;;;;;10431153;28;20864;-71
2022/12/05 17:01:21;;;;;;;11.10;7.57;;;5.90;99.90;;;;;;10422297;28;20707;-70
2022/12/05 17:06:24;;;;;;;7.20;5.47;;;5.90;99.90;;;;;;10429141;28;20231;-71
2022/12/05 17:11:31;;;;;;;6.63;5.63;;;5.90;99.90;;;;;;10424158;28;20263;-71
2022/12/05 17:16:32;;;;;;;6.00;4.93;;;5.90;99.90;;;;;;10430140;28;20228;-73
2022/12/05 17:21:35;;;;;;;5.77;4.00;;;5.90;99.90;;;;;;10431060;28;20630;-71
2022/12/05 17:26:36;;;;;;;4.73;3.70;;;5.90;99.90;;;;;;10430725;28;20220;-72
2022/12/05 17:31:37;;;;;;;4.57;4.13;;;5.90;99.90;;;;;;10429266;28;20217;-71
2022/12/05 17:36:38;;;;;;;6.67;3.50;;;5.90;99.90;;;;;;10430163;28;20236;-71
2022/12/05 17:41:38;;;;;;;4.67;3.57;;;5.90;99.90;;;;;;10426737;28;20604;-71
2022/12/05 17:46:41;;;;;;;4.03;3.27;;;5.90;99.90;;;;;;10424957;28;20216;-71
2022/12/05 17:51:42;;;;;;;4.27;3.33;;;5.90;99.90;;;;;;10425663;28;20240;-72
2022/12/05 17:56:43;;;;;;;5.30;3.80;;;5.90;99.90;;;;;;10426379;28;20312;-71
2022/12/05 18:01:43;;;;;;;4.67;3.40;;;5.80;99.90;;;;;;10425807;28;20244;-72
2022/12/05 18:06:44;;;;;;;3.93;2.90;;;5.80;99.90;;;;;;10433495;28;20307;-72
2022/12/05 18:11:45;;;;;;;4.43;3.60;;;5.80;99.90;;;;;;10453257;28;20220;-73
2022/12/05 18:16:45;;;;;;;3.97;3.23;;;5.80;99.90;;;;;;10440810;28;20243;-73
2022/12/05 18:21:46;;;;;;;3.57;3.27;;;5.80;99.90;;;;;;10454015;28;20216;-70
2022/12/05 18:26:47;;;;;;;4.03;3.60;;;5.80;99.90;;;;;;10455725;28;20224;-73
2022/12/05 18:31:50;;;;;;;3.30;2.83;;;5.80;99.90;;;;;;10453411;28;20216;-78
2022/12/05 18:36:51;;;;;;;4.13;3.20;;;5.80;99.90;;;;;;10436116;28;20223;-73
2022/12/05 18:41:51;;;;;;;3.40;2.90;;;5.80;99.90;;;;;;10440417;28;20212;-73
2022/12/05 18:46:52;;;;;;;3.00;2.70;;;5.70;99.90;;;;;;10439660;28;20215;-72
2022/12/05 18:51:52;;;;;;;3.53;2.93;;;5.80;99.90;;;;;;10449831;28;20298;-72
2022/12/05 18:56:53;;;;;;;3.30;3.00;;;5.80;99.90;;;;;;10436986;28;20222;-75
2022/12/05 19:01:54;;;;;;;3.47;3.17;;;5.80;99.90;;;;;;10436277;28;20243;-71
2022/12/05 19:06:59;;;;;;;3.27;2.90;;;5.70;99.90;;;;;;10428872;28;20219;-72
2022/12/05 19:12:00;;;;;;;3.20;2.90;;;5.70;99.90;;;;;;10433731;28;20231;-71
2022/12/05 19:17:01;;;;;;;3.23;2.90;;;5.70;99.90;;;;;;10433928;28;20947;-73
2022/12/05 19:22:01;;;;;;;3.57;3.20;;;5.70;99.90;;;;;;10428334;28;20232;-71
2022/12/05 19:27:02;;;;;;;4.40;3.20;;;5.80;99.90;;;;;;10444060;28;20691;-71
2022/12/05 19:32:02;;;;;;;3.67;3.37;;;5.80;99.90;;;;;;10440661;28;20587;-72
2022/12/05 19:37:03;;;;;;;3.80;3.40;;;5.80;99.90;;;;;;10457768;28;20231;-73
2022/12/05 19:42:03;;;;;;;4.97;3.73;;;5.80;99.90;;;;;;10450409;28;20729;-73
2022/12/05 19:47:04;;;;;;;5.13;3.83;;;5.80;99.90;;;;;;10441820;28;20212;-74
2022/12/05 19:52:05;;;;;;;5.77;3.70;;;5.80;99.90;;;;;;10445520;28;20248;-73
2022/12/05 19:57:05;;;;;;;4.77;3.90;;;5.80;99.90;;;;;;10441438;28;20228;-72
2022/12/05 20:02:08;;;;;;;5.03;4.20;;;5.80;99.90;;;;;;10449935;28;20204;-72
2022/12/05 20:07:09;;;;;;;4.77;3.60;;;5.80;99.90;;;;;;10455610;28;20232;-73
2022/12/05 20:12:10;;;;;;;5.40;3.90;;;5.80;99.90;;;;;;10434279;28;20313;-73
2022/12/05 20:17:10;;;;;;;5.57;4.20;;;5.80;99.90;;;;;;10429723;28;20274;-71
2022/12/05 20:22:11;;;;;;;9.33;4.10;;;5.80;99.90;;;;;;10435464;28;20277;-72
2022/12/05 20:27:13;;;;;;;4.67;4.13;;;5.80;99.90;;;;;;10456847;28;20222;-74
2022/12/05 20:32:13;;;;;;;4.17;3.73;;;5.80;99.90;;;;;;10456861;28;20327;-72
2022/12/05 20:37:14;;;;;;;4.67;3.80;;;5.90;99.90;;;;;;10453795;28;20219;-72
2022/12/05 20:42:15;;;;;;;4.73;4.17;;;5.80;99.90;;;;;;10496041;28;20247;-70
2022/12/05 20:47:15;;;;;;;4.13;3.60;;;5.90;99.90;;;;;;10454105;28;20625;-76
2022/12/05 20:52:16;;;;;;;6.33;4.50;;;5.90;99.90;;;;;;10438701;28;20220;-76
2022/12/05 20:57:16;;;;;;;6.23;4.50;;;5.90;99.90;;;;;;10425193;28;20239;-77
2022/12/05 21:02:17;;;;;;;5.13;3.97;;;5.90;99.90;;;;;;10433010;28;20219;-75
2022/12/05 21:07:18;;;;;;;4.07;3.67;;;5.90;99.90;;;;;;10431921;28;20224;-73
2022/12/05 21:12:19;;;;;;;4.50;3.87;;;5.90;99.90;;;;;;10424282;28;20243;-73
2022/12/05 21:17:20;;;;;;;4.67;3.90;;;5.90;99.90;;;;;;10437882;28;20230;-75
2022/12/05 21:22:22;;;;;;;5.47;3.83;;;5.90;99.90;;;;;;10432146;28;20228;-74
2022/12/05 21:27:23;;;;;;;6.17;3.97;;;5.90;99.90;;;;;;10428679;28;20211;-74
2022/12/05 21:32:23;;;;;;;6.23;3.63;;;5.90;99.90;;;;;;10423720;28;20216;-74
2022/12/05 21:37:27;;;;;;;5.33;3.57;;;5.90;99.90;;;;;;10429430;28;20238;-72
2022/12/05 21:42:27;;;;;;;4.07;3.50;;;5.90;99.90;;;;;;10435972;28;20282;-73
2022/12/05 21:47:28;;;;;;;4.73;4.00;;;5.90;99.90;;;;;;10424448;28;20706;-73
2022/12/05 21:52:28;;;;;;;4.63;3.87;;;5.90;99.90;;;;;;10428927;28;20251;-73
2022/12/05 21:57:30;;;;;;;5.17;3.63;;;5.90;99.90;;;;;;10426984;28;20236;-74
2022/12/05 22:02:31;;;;;;;4.20;3.80;;;5.90;99.90;;;;;;10431248;28;20247;-74
2022/12/05 22:07:32;;;;;;;3.63;3.33;;;5.90;99.90;;;;;;10434118;28;20279;-73
2022/12/05 22:12:33;;;;;;;3.90;3.50;;;6.00;99.90;;;;;;10433155;28;20311;-73
2022/12/05 22:17:33;;;;;;;4.80;3.30;;;6.00;99.90;;;;;;10435049;28;20228;-74
2022/12/05 22:22:34;;;;;;;4.00;3.43;;;5.90;99.90;;;;;;10431142;28;20302;-73
2022/12/05 22:27:35;;;;;;;4.77;4.20;;;5.90;99.90;;;;;;10440244;28;20239;-74
2022/12/05 22:32:35;;;;;;;4.13;3.33;;;6.00;99.90;;;;;;10434114;28;20250;-74
2022/12/05 22:37:36;;;;;;;5.43;3.40;;;6.00;99.90;;;;;;10432021;28;20832;-75
2022/12/05 22:42:36;;;;;;;5.20;3.63;;;6.00;99.90;;;;;;10436339;28;20710;-73
2022/12/05 22:47:37;;;;;;;4.60;3.57;;;6.00;99.90;;;;;;10431979;28;20231;-73
2022/12/05 22:52:37;;;;;;;4.40;3.23;;;6.00;99.90;;;;;;10430223;28;20760;-72
2022/12/05 22:57:38;;;;;;;5.40;3.47;;;5.90;99.90;;;;;;10441494;28;20224;-73
2022/12/05 23:02:38;;;;;;;4.60;3.30;;;5.90;99.90;;;;;;10436320;28;20216;-73
2022/12/05 23:07:39;;;;;;;4.23;3.47;;;5.90;99.90;;;;;;10427464;28;20220;-72
2022/12/05 23:12:40;;;;;;;5.93;3.70;;;5.90;99.90;;;;;;10434376;28;20221;-71
2022/12/05 23:17:40;;;;;;;4.87;3.73;;;5.90;99.90;;;;;;10427826;28;20241;-71
2022/12/05 23:22:41;;;;;;;6.63;3.50;;;5.90;99.90;;;;;;10439118;28;20237;-74
2022/12/05 23:27:41;;;;;;;8.60;5.07;;;5.90;99.90;;;;;;10435528;28;20615;-74
2022/12/05 23:32:42;;;;;;;3.50;3.20;;;5.90;99.90;;;;;;10431615;28;20279;-74
2022/12/05 23:37:43;;;;;;;4.27;3.57;;;5.90;99.90;;;;;;10429643;28;20235;-73
2022/12/05 23:42:43;;;;;;;4.30;3.70;;;5.90;99.90;;;;;;10430437;28;20228;-72
2022/12/05 23:47:44;;;;;;;5.63;3.73;;;5.90;99.90;;;;;;10434769;28;20278;-74
2022/12/05 23:52:44;;;;;;;5.43;4.13;;;5.90;99.90;;;;;;10430807;28;20267;-74
2022/12/05 23:57:45;;;;;;;5.50;3.70;;;5.90;99.90;;;;;;10429538;28;20240;-75
